Time;durP1;ratioP1;P1;durP2;ratioP2;P2;SDS_P1;SDS_P2;PMS_P1;PMS_P2;Temp;Humidity;BMP_temperature;BMP_pressure;BME280_temperature;BME280_humidity;BME280_pressure;Samples;Min_cycle;Max_cycle;Signal;HPM_P1;HPM_P2
2022/04/28 00:02:25;;;;;;;2.30;2.20;;;19.00;42.80;;;;;;5040565;28;20422;-57
2022/04/28 00:04:50;;;;;;;2.20;2.10;;;19.00;42.80;;;;;;5038355;28;20423;-58
2022/04/28 00:07:16;;;;;;;2.27;2.17;;;19.00;42.80;;;;;;5039390;28;20661;-58
2022/04/28 00:09:42;;;;;;;2.53;2.43;;;19.00;42.80;;;;;;5034642;28;21014;-59
2022/04/28 00:12:10;;;;;;;2.27;2.10;;;19.00;42.80;;;;;;5041445;28;20221;-59
2022/04/28 00:14:36;;;;;;;2.50;2.40;;;19.00;42.80;;;;;;5035021;28;20215;-59
2022/04/28 00:17:02;;;;;;;2.00;1.90;;;19.00;42.90;;;;;;5038280;28;20981;-58
2022/04/28 00:19:27;;;;;;;2.60;2.40;;;19.00;42.90;;;;;;5043978;28;20461;-57
2022/04/28 00:21:53;;;;;;;2.20;2.10;;;19.00;42.90;;;;;;5036573;28;20222;-57
2022/04/28 00:24:19;;;;;;;2.60;2.50;;;19.00;42.90;;;;;;5039388;28;20288;-57
2022/04/28 00:26:44;;;;;;;2.50;2.30;;;19.00;42.90;;;;;;5035700;28;20230;-57
2022/04/28 00:29:10;;;;;;;2.27;2.17;;;19.00;42.80;;;;;;5039829;28;20231;-57
2022/04/28 00:31:35;;;;;;;2.30;2.20;;;19.00;42.80;;;;;;5041522;28;20244;-57
2022/04/28 00:34:01;;;;;;;2.17;2.07;;;19.00;42.90;;;;;;5035064;28;20224;-57
2022/04/28 00:36:26;;;;;;;2.00;1.90;;;19.00;42.80;;;;;;5040786;28;20233;-58
2022/04/28 00:38:52;;;;;;;2.37;2.17;;;19.00;42.90;;;;;;5037990;28;20674;-58
2022/04/28 00:41:18;;;;;;;2.17;2.07;;;19.00;42.80;;;;;;5036245;28;20215;-57
2022/04/28 00:43:53;;;;;;;1.97;1.87;;;19.00;42.80;;;;;;5039655;28;20227;-60
2022/04/28 00:46:19;;;;;;;2.33;2.23;;;19.00;42.80;;;;;;5021875;28;20309;-58
2022/04/28 00:51:31;;;;;;;1.80;1.70;;;19.00;42.90;;;;;;5036384;28;20581;-58
2022/04/28 00:53:58;;;;;;;2.43;2.23;;;19.00;42.90;;;;;;5039878;28;20427;-59
2022/04/28 00:56:25;;;;;;;2.00;1.90;;;19.00;43.60;;;;;;5039100;28;20816;-58
2022/04/28 00:58:51;;;;;;;2.27;2.07;;;19.00;42.90;;;;;;5036877;28;20415;-58
2022/04/28 01:01:16;;;;;;;2.37;2.27;;;18.90;42.80;;;;;;5040522;28;20450;-57
2022/04/28 01:03:43;;;;;;;2.47;2.27;;;19.00;42.90;;;;;;5037699;28;20990;-57
2022/04/28 01:06:08;;;;;;;2.40;2.10;;;19.00;43.70;;;;;;5020732;28;20278;-59
2022/04/28 01:08:34;;;;;;;3.07;2.13;;;19.00;42.90;;;;;;5019242;28;20852;-57
2022/04/28 01:11:01;;;;;;;2.20;2.10;;;19.00;42.90;;;;;;5020621;28;20232;-58
2022/04/28 01:13:27;;;;;;;1.90;1.80;;;19.00;42.90;;;;;;5019026;28;20224;-57
2022/04/28 01:15:54;;;;;;;1.90;1.80;;;19.00;42.90;;;;;;5015536;28;20415;-57
2022/04/28 01:18:20;;;;;;;2.00;1.90;;;19.00;42.90;;;;;;5019493;28;20232;-58
2022/04/28 01:20:45;;;;;;;1.93;1.83;;;18.90;42.90;;;;;;5021981;28;20502;-58
2022/04/28 01:23:11;;;;;;;2.30;2.10;;;18.90;42.80;;;;;;5019240;28;20457;-57
2022/04/28 01:25:37;;;;;;;2.20;2.10;;;18.90;42.80;;;;;;5016829;28;20241;-58
2022/04/28 01:28:03;;;;;;;1.97;1.87;;;18.90;42.80;;;;;;5025535;28;20448;-58
2022/04/28 01:30:29;;;;;;;1.90;1.80;;;18.90;42.80;;;;;;5017660;28;20273;-58
2022/04/28 01:32:59;;;;;;;2.00;1.90;;;18.90;42.80;;;;;;5019221;28;20588;-57
2022/04/28 01:35:25;;;;;;;2.00;1.90;;;18.90;42.80;;;;;;5017342;28;20223;-57
2022/04/28 01:37:52;;;;;;;2.10;2.00;;;18.90;42.80;;;;;;5018696;28;20426;-57
2022/04/28 01:40:18;;;;;;;2.17;2.07;;;18.90;42.80;;;;;;5018827;28;20430;-57
2022/04/28 01:42:45;;;;;;;2.10;2.00;;;18.90;42.80;;;;;;5018346;28;20435;-57
2022/04/28 01:45:11;;;;;;;2.20;2.10;;;18.90;42.80;;;;;;5016079;28;20540;-57
2022/04/28 01:47:39;;;;;;;2.03;1.93;;;18.90;42.80;;;;;;5017824;28;20437;-58
2022/04/28 01:50:06;;;;;;;2.17;2.07;;;18.90;42.90;;;;;;5019835;28;20819;-58
2022/04/28 01:55:16;;;;;;;2.03;1.93;;;18.90;42.80;;;;;;5018847;28;20506;-57
2022/04/28 01:57:43;;;;;;;2.00;1.90;;;18.90;42.80;;;;;;5017777;28;20513;-57
2022/04/28 02:00:09;;;;;;;2.10;2.00;;;18.90;42.80;;;;;;5021234;28;20227;-61
2022/04/28 02:02:35;;;;;;;1.80;1.70;;;18.90;42.80;;;;;;5025190;28;20526;-58
2022/04/28 02:05:03;;;;;;;1.90;1.80;;;18.90;42.80;;;;;;5021441;28;20513;-57
2022/04/28 02:07:29;;;;;;;2.43;2.33;;;18.90;42.80;;;;;;5040119;28;20239;-57
2022/04/28 02:09:56;;;;;;;2.27;2.17;;;18.90;42.80;;;;;;5044072;28;20466;-58
2022/04/28 02:12:24;;;;;;;2.20;2.10;;;18.90;42.80;;;;;;5038903;28;20222;-57
2022/04/28 02:14:50;;;;;;;1.90;1.80;;;18.90;42.80;;;;;;5041135;28;20782;-57
2022/04/28 02:17:21;;;;;;;2.20;2.10;;;18.90;42.80;;;;;;5041171;28;20455;-58
2022/04/28 02:19:47;;;;;;;2.10;2.00;;;18.90;42.80;;;;;;5040464;28;20210;-57
2022/04/28 02:22:12;;;;;;;1.90;1.80;;;18.90;42.80;;;;;;5040652;28;20761;-58
2022/04/28 02:24:38;;;;;;;2.00;1.90;;;18.90;42.90;;;;;;5039674;28;20454;-58
2022/04/28 02:27:04;;;;;;;2.10;2.00;;;18.90;42.80;;;;;;5040674;28;20226;-58
2022/04/28 02:29:30;;;;;;;2.30;2.20;;;18.90;42.80;;;;;;5039626;28;20706;-58
2022/04/28 02:31:56;;;;;;;2.17;2.07;;;18.90;42.90;;;;;;5042265;28;20714;-57
2022/04/28 02:34:21;;;;;;;2.17;2.07;;;18.90;42.80;;;;;;5040232;28;20498;-57
2022/04/28 02:36:47;;;;;;;2.10;2.00;;;18.90;42.80;;;;;;5038213;28;20261;-57
2022/04/28 02:39:14;;;;;;;2.20;2.10;;;18.90;42.80;;;;;;5040681;28;20686;-57
2022/04/28 02:41:41;;;;;;;2.07;1.97;;;18.90;43.70;;;;;;5039258;28;20227;-58
2022/04/28 02:44:06;;;;;;;2.10;2.00;;;18.90;42.80;;;;;;5043009;28;21004;-58
2022/04/28 02:46:32;;;;;;;1.97;1.87;;;18.90;42.80;;;;;;5038719;28;21016;-57
2022/04/28 02:48:58;;;;;;;2.10;2.00;;;18.90;42.90;;;;;;5039413;28;20231;-58
2022/04/28 02:51:24;;;;;;;1.90;1.80;;;18.90;42.80;;;;;;5024186;28;20222;-58
2022/04/28 02:53:49;;;;;;;1.97;1.87;;;18.90;42.80;;;;;;5039431;28;20231;-57
2022/04/28 02:56:15;;;;;;;2.40;2.30;;;18.90;42.80;;;;;;5041910;28;20242;-58
2022/04/28 02:58:41;;;;;;;2.10;2.00;;;18.90;42.80;;;;;;5040724;28;20230;-57
2022/04/28 03:01:07;;;;;;;2.07;1.97;;;18.90;42.80;;;;;;5035842;28;20293;-57
2022/04/28 03:03:32;;;;;;;2.03;1.93;;;18.90;42.80;;;;;;5042461;28;20672;-57
2022/04/28 03:11:28;;;;;;;1.90;1.80;;;18.90;42.80;;;;;;5040695;28;20484;-59
2022/04/28 03:13:55;;;;;;;2.00;1.90;;;18.90;42.80;;;;;;5045486;28;20926;-58
2022/04/28 03:16:20;;;;;;;2.57;2.47;;;18.90;42.80;;;;;;5038046;28;20215;-57
2022/04/28 03:18:46;;;;;;;2.27;2.07;;;18.90;42.80;;;;;;5035053;28;20426;-57
2022/04/28 03:21:12;;;;;;;2.10;2.00;;;18.90;42.80;;;;;;5040598;28;20258;-58
2022/04/28 03:23:38;;;;;;;2.00;1.90;;;18.90;42.80;;;;;;5042771;28;20222;-57
2022/04/28 03:26:04;;;;;;;2.00;1.90;;;18.90;42.80;;;;;;5039036;28;20463;-57
2022/04/28 03:28:34;;;;;;;2.20;2.10;;;18.90;42.80;;;;;;5040376;28;20214;-58
2022/04/28 03:31:01;;;;;;;2.10;2.00;;;18.90;42.80;;;;;;5038582;28;20463;-59
2022/04/28 03:33:27;;;;;;;2.03;1.93;;;18.90;42.80;;;;;;5035752;28;20424;-57
2022/04/28 03:35:53;;;;;;;2.30;2.20;;;18.90;42.70;;;;;;5037159;28;20425;-59
2022/04/28 03:38:19;;;;;;;2.30;2.10;;;18.90;42.70;;;;;;5040541;28;20427;-58
2022/04/28 03:40:45;;;;;;;2.20;2.10;;;18.90;42.70;;;;;;5042512;28;20441;-58
2022/04/28 03:43:11;;;;;;;2.47;2.27;;;18.90;42.70;;;;;;5042808;28;20249;-57
2022/04/28 03:45:37;;;;;;;2.30;2.20;;;18.90;42.80;;;;;;5041408;28;20321;-58
2022/04/28 03:48:03;;;;;;;2.00;1.90;;;18.90;42.80;;;;;;5038783;28;20448;-58
2022/04/28 03:50:30;;;;;;;1.90;1.80;;;18.90;42.70;;;;;;5041888;28;20509;-58
2022/04/28 03:52:57;;;;;;;2.27;2.17;;;18.90;42.70;;;;;;5038308;28;20215;-57
2022/04/28 03:55:23;;;;;;;2.17;2.07;;;18.90;42.80;;;;;;5039499;28;21125;-59
2022/04/28 03:57:48;;;;;;;2.30;2.20;;;18.90;43.00;;;;;;5043744;28;20494;-58
2022/04/28 04:00:14;;;;;;;2.00;1.90;;;18.90;42.70;;;;;;5040509;28;20464;-57
2022/04/28 04:02:40;;;;;;;2.23;2.10;;;18.90;42.70;;;;;;5042935;28;20269;-57
2022/04/28 04:05:07;;;;;;;2.20;2.10;;;18.90;42.70;;;;;;5035078;28;20431;-57
2022/04/28 04:07:33;;;;;;;2.53;2.43;;;18.90;42.70;;;;;;5040673;28;20711;-59
2022/04/28 04:09:59;;;;;;;2.80;2.60;;;18.90;42.70;;;;;;5037692;28;20457;-58
2022/04/28 04:12:25;;;;;;;2.17;2.07;;;18.90;42.70;;;;;;5039969;28;20411;-58
2022/04/28 04:14:52;;;;;;;2.00;1.90;;;18.90;42.70;;;;;;5040566;28;20223;-57
2022/04/28 04:17:19;;;;;;;2.00;1.90;;;18.90;42.70;;;;;;5041858;28;20437;-58
2022/04/28 04:19:45;;;;;;;2.30;2.10;;;18.90;42.70;;;;;;5038773;28;20434;-57
2022/04/28 04:22:11;;;;;;;2.30;2.10;;;18.90;42.70;;;;;;5037886;28;20799;-57
2022/04/28 04:24:36;;;;;;;2.50;2.30;;;18.90;42.60;;;;;;5038629;28;20314;-58
2022/04/28 04:27:02;;;;;;;2.40;2.30;;;18.90;43.40;;;;;;5036926;28;20212;-60
2022/04/28 04:29:28;;;;;;;2.40;2.17;;;18.90;42.70;;;;;;5037705;28;20238;-59
2022/04/28 04:34:37;;;;;;;1.90;1.80;;;18.90;42.70;;;;;;5031929;28;20264;-58
2022/04/28 04:37:03;;;;;;;2.10;1.90;;;18.90;42.70;;;;;;5039389;28;20809;-59
2022/04/28 04:39:29;;;;;;;2.20;2.10;;;18.90;42.70;;;;;;5019977;28;20254;-58
2022/04/28 04:41:54;;;;;;;2.33;2.23;;;18.90;42.60;;;;;;5036356;28;20253;-60
2022/04/28 04:44:20;;;;;;;1.93;1.83;;;18.90;42.60;;;;;;5035823;28;20230;-59
2022/04/28 04:46:45;;;;;;;2.33;2.23;;;18.80;42.50;;;;;;5037274;28;20234;-58
2022/04/28 04:49:11;;;;;;;2.07;1.97;;;18.90;42.60;;;;;;5036154;28;20227;-58
2022/04/28 04:51:37;;;;;;;2.00;1.90;;;18.90;42.60;;;;;;5036164;28;20756;-58
2022/04/28 04:54:02;;;;;;;2.03;1.93;;;18.90;42.60;;;;;;5038318;28;20229;-57
2022/04/28 04:56:28;;;;;;;2.20;2.00;;;18.90;42.60;;;;;;5042309;28;20227;-59
2022/04/28 04:58:53;;;;;;;2.13;1.93;;;18.90;42.60;;;;;;5038533;28;20624;-57
2022/04/28 05:01:19;;;;;;;5.50;2.70;;;18.90;42.60;;;;;;5041238;28;20321;-57
2022/04/28 05:03:45;;;;;;;2.17;2.07;;;18.90;42.60;;;;;;5039610;28;20227;-58
2022/04/28 05:06:10;;;;;;;2.13;2.03;;;18.90;42.60;;;;;;5038865;28;20235;-57
2022/04/28 05:08:36;;;;;;;2.10;2.00;;;18.90;42.60;;;;;;5041948;28;20230;-60
2022/04/28 05:11:01;;;;;;;2.20;2.00;;;18.90;42.60;;;;;;5035567;28;20226;-59
2022/04/28 05:13:27;;;;;;;2.00;1.90;;;18.90;43.30;;;;;;5037802;28;20676;-58
2022/04/28 05:15:53;;;;;;;2.27;2.17;;;18.90;42.50;;;;;;5031308;28;20245;-57
2022/04/28 05:18:19;;;;;;;3.93;1.90;;;18.90;42.50;;;;;;5042204;28;20406;-58
2022/04/28 05:20:45;;;;;;;2.20;2.10;;;18.90;42.50;;;;;;5037096;28;20296;-59
2022/04/28 05:23:10;;;;;;;2.60;2.40;;;18.90;42.50;;;;;;5040443;28;20218;-58
2022/04/28 05:25:36;;;;;;;2.53;2.33;;;18.90;42.40;;;;;;5035511;28;20226;-58
2022/04/28 05:28:02;;;;;;;2.50;2.40;;;19.00;42.50;;;;;;5037302;28;20226;-58
2022/04/28 05:30:28;;;;;;;2.23;2.13;;;19.00;42.50;;;;;;5038700;28;20254;-57
2022/04/28 05:32:54;;;;;;;2.90;2.30;;;19.00;42.50;;;;;;5033219;28;20933;-57
2022/04/28 05:35:19;;;;;;;2.43;1.93;;;19.00;42.40;;;;;;5039534;28;20830;-57
2022/04/28 05:37:45;;;;;;;2.33;2.23;;;19.00;42.40;;;;;;5038964;28;20663;-59
2022/04/28 05:40:13;;;;;;;2.53;2.33;;;19.00;42.40;;;;;;5035866;28;20223;-58
2022/04/28 05:45:42;;;;;;;2.53;2.40;;;19.00;42.30;;;;;;5036739;28;20517;-57
2022/04/28 05:48:18;;;;;;;2.53;2.37;;;19.00;42.40;;;;;;5033126;28;20953;-58
2022/04/28 05:50:44;;;;;;;2.30;2.20;;;19.00;42.30;;;;;;5039058;28;20802;-57
2022/04/28 05:53:10;;;;;;;2.33;2.20;;;19.00;42.30;;;;;;5038356;28;20426;-58
2022/04/28 05:55:37;;;;;;;2.30;2.20;;;19.00;42.30;;;;;;5037326;28;20484;-57
2022/04/28 05:58:03;;;;;;;2.10;2.00;;;19.00;42.30;;;;;;5038648;28;20466;-58
2022/04/28 06:00:31;;;;;;;2.50;2.30;;;19.00;42.30;;;;;;5035717;28;20460;-57
2022/04/28 06:02:56;;;;;;;7.13;2.40;;;19.00;42.20;;;;;;5008663;28;20456;-57
2022/04/28 06:05:22;;;;;;;2.00;1.90;;;19.00;42.20;;;;;;5037320;28;20919;-58
2022/04/28 06:07:49;;;;;;;2.60;2.40;;;19.00;42.20;;;;;;5038756;28;20305;-58
2022/04/28 06:10:14;;;;;;;2.43;2.23;;;19.00;42.20;;;;;;5039535;28;20460;-57
2022/04/28 06:12:41;;;;;;;2.23;2.13;;;19.00;42.20;;;;;;5038212;28;20422;-57
2022/04/28 06:15:07;;;;;;;2.63;2.00;;;19.00;42.20;;;;;;5039516;28;20307;-57
2022/04/28 06:17:32;;;;;;;2.73;2.30;;;19.00;42.10;;;;;;5042995;28;20517;-57
2022/04/28 06:19:58;;;;;;;2.13;2.03;;;19.00;42.20;;;;;;5040079;28;20461;-58
2022/04/28 06:22:24;;;;;;;2.40;2.30;;;19.00;42.90;;;;;;5025151;28;20227;-62
2022/04/28 06:24:53;;;;;;;3.00;2.37;;;19.00;42.10;;;;;;4958617;28;20342;-63
2022/04/28 06:27:20;;;;;;;2.30;2.20;;;19.00;42.10;;;;;;4944474;28;20288;-61
2022/04/28 06:29:48;;;;;;;2.20;2.00;;;19.10;42.30;;;;;;4985383;28;20483;-57
2022/04/28 06:32:17;;;;;;;3.33;2.17;;;19.10;42.20;;;;;;5037979;28;20564;-58
2022/04/28 06:34:44;;;;;;;2.03;1.93;;;19.10;42.20;;;;;;5037220;28;20463;-58
2022/04/28 06:37:10;;;;;;;5.57;2.00;;;19.10;42.20;;;;;;5037168;28;21194;-61
2022/04/28 06:39:35;;;;;;;3.33;2.67;;;19.10;42.20;;;;;;5038823;28;20456;-57
2022/04/28 06:42:01;;;;;;;2.50;2.30;;;19.10;42.10;;;;;;5033477;28;20302;-57
2022/04/28 06:44:26;;;;;;;2.57;2.20;;;19.10;42.20;;;;;;5042503;28;20234;-57
2022/04/28 06:46:52;;;;;;;2.10;2.00;;;19.10;42.20;;;;;;5039464;28;20226;-57
2022/04/28 06:49:18;;;;;;;2.90;2.70;;;19.10;42.20;;;;;;5038939;28;20277;-56
2022/04/28 06:51:43;;;;;;;2.27;2.07;;;19.10;42.20;;;;;;5023393;28;20222;-58
2022/04/28 06:54:09;;;;;;;2.33;2.23;;;19.10;42.20;;;;;;5041308;28;20242;-57
2022/04/28 06:56:35;;;;;;;2.27;2.00;;;19.10;42.20;;;;;;5039864;28;20246;-57
2022/04/28 06:59:00;;;;;;;2.57;2.37;;;19.10;42.20;;;;;;5041220;28;20764;-57
2022/04/28 07:01:26;;;;;;;2.67;2.07;;;19.10;42.20;;;;;;5044944;28;20222;-57
2022/04/28 07:03:51;;;;;;;2.40;2.00;;;19.10;42.20;;;;;;5039743;28;20686;-57
2022/04/28 07:06:17;;;;;;;1.90;1.80;;;19.10;42.20;;;;;;5043095;28;20242;-57
2022/04/28 07:08:43;;;;;;;2.13;1.83;;;19.10;42.20;;;;;;5036945;28;20302;-58
2022/04/28 07:11:09;;;;;;;2.30;2.10;;;19.10;42.20;;;;;;5044191;28;20234;-57
2022/04/28 07:13:38;;;;;;;2.33;2.23;;;19.10;42.20;;;;;;5038748;28;21041;-57
2022/04/28 07:16:05;;;;;;;2.20;2.10;;;19.10;42.20;;;;;;5044530;28;20947;-57
2022/04/28 07:18:31;;;;;;;2.00;1.90;;;19.10;42.20;;;;;;5040533;28;20505;-57
2022/04/28 07:20:58;;;;;;;2.07;1.97;;;19.10;42.20;;;;;;5038504;28;20864;-56
2022/04/28 07:23:24;;;;;;;2.37;2.17;;;19.10;42.20;;;;;;5037802;28;20455;-58
2022/04/28 07:25:49;;;;;;;2.00;1.90;;;19.10;42.20;;;;;;5039145;28;20522;-58
2022/04/28 07:28:15;;;;;;;2.30;2.10;;;19.10;42.20;;;;;;5036690;28;20210;-58
2022/04/28 07:30:41;;;;;;;2.40;2.20;;;19.10;42.20;;;;;;5021704;28;20703;-57
2022/04/28 07:33:08;;;;;;;2.53;2.33;;;19.10;42.20;;;;;;5038200;28;20223;-57
2022/04/28 07:35:34;;;;;;;2.60;2.40;;;19.10;42.10;;;;;;5039022;28;20269;-57
2022/04/28 07:38:00;;;;;;;2.93;2.50;;;19.10;42.20;;;;;;5038973;28;20463;-57
2022/04/28 07:40:26;;;;;;;2.03;1.93;;;19.10;42.10;;;;;;5035714;28;20422;-56
2022/04/28 07:42:51;;;;;;;2.00;1.90;;;19.10;42.10;;;;;;5039465;28;20242;-57
2022/04/28 07:45:17;;;;;;;2.13;1.93;;;19.10;42.20;;;;;;5038717;28;20588;-56
2022/04/28 07:47:43;;;;;;;2.73;2.50;;;19.10;42.10;;;;;;5041474;28;20230;-58
2022/04/28 07:50:10;;;;;;;2.60;2.40;;;19.10;42.90;;;;;;5039758;28;20261;-58
2022/04/28 07:52:37;;;;;;;2.23;2.13;;;19.10;42.10;;;;;;5044180;28;20280;-57
2022/04/28 07:55:03;;;;;;;2.83;2.63;;;19.10;42.10;;;;;;5037465;28;20467;-57
2022/04/28 07:57:28;;;;;;;2.10;2.00;;;19.10;42.20;;;;;;5020945;28;20415;-58
2022/04/28 07:59:54;;;;;;;2.30;2.20;;;19.10;42.20;;;;;;5042849;28;20570;-57
2022/04/28 08:02:19;;;;;;;2.47;2.37;;;19.10;42.20;;;;;;5039363;28;20233;-57
2022/04/28 08:04:45;;;;;;;2.53;2.33;;;19.10;43.00;;;;;;5042513;28;20221;-57
2022/04/28 08:07:10;;;;;;;2.37;2.27;;;19.10;42.20;;;;;;5034253;28;20231;-57
2022/04/28 08:09:36;;;;;;;2.40;2.30;;;19.10;42.20;;;;;;5038219;28;20243;-57
2022/04/28 08:12:02;;;;;;;2.07;1.97;;;19.10;42.20;;;;;;5039102;28;20231;-57
2022/04/28 08:14:28;;;;;;;2.37;2.17;;;19.10;42.20;;;;;;5040851;28;20219;-58
2022/04/28 08:16:55;;;;;;;2.00;1.90;;;19.10;42.20;;;;;;5040579;28;20770;-57
2022/04/28 08:19:21;;;;;;;2.13;2.03;;;19.10;42.20;;;;;;5039156;28;20245;-57
2022/04/28 08:21:47;;;;;;;2.13;2.03;;;19.10;42.20;;;;;;5035662;28;20930;-57
2022/04/28 08:24:13;;;;;;;2.50;2.33;;;19.10;42.20;;;;;;5033148;28;20223;-59
2022/04/28 08:26:38;;;;;;;2.47;2.27;;;19.10;42.30;;;;;;5039045;28;21794;-57
2022/04/28 08:29:04;;;;;;;2.00;1.90;;;19.10;42.20;;;;;;5041786;28;20226;-58
2022/04/28 08:31:30;;;;;;;2.50;2.40;;;19.10;42.20;;;;;;5043009;28;20250;-57
2022/04/28 08:33:56;;;;;;;2.10;2.00;;;19.10;42.30;;;;;;5030707;28;20223;-57
2022/04/28 08:36:22;;;;;;;2.40;2.30;;;19.10;42.20;;;;;;5040702;28;20223;-57
2022/04/28 08:38:48;;;;;;;2.73;2.63;;;19.10;42.30;;;;;;5035875;28;20210;-57
2022/04/28 08:41:21;;;;;;;2.90;2.20;;;19.10;42.30;;;;;;5035890;28;20230;-58
2022/04/28 08:43:47;;;;;;;2.40;2.20;;;19.10;42.30;;;;;;5042048;28;20277;-57
2022/04/28 08:48:57;;;;;;;2.90;2.70;;;19.10;42.30;;;;;;5039337;28;20459;-57
2022/04/28 08:51:25;;;;;;;2.87;2.60;;;19.10;42.30;;;;;;5029256;28;20461;-58
2022/04/28 08:53:51;;;;;;;2.40;2.30;;;19.10;42.30;;;;;;5038549;28;20223;-57
2022/04/28 08:56:18;;;;;;;2.80;2.70;;;19.10;42.30;;;;;;5035468;28;20422;-58
2022/04/28 08:58:44;;;;;;;2.60;2.40;;;19.10;42.30;;;;;;5040480;28;20426;-57
2022/04/28 09:01:10;;;;;;;2.30;2.20;;;19.10;42.30;;;;;;5039790;28;20571;-56
2022/04/28 09:03:36;;;;;;;2.50;2.40;;;19.10;42.40;;;;;;5042976;28;20522;-58
2022/04/28 09:06:23;;;;;;;2.43;2.33;;;19.10;42.30;;;;;;5042340;28;20265;-57
2022/04/28 09:08:51;;;;;;;3.80;2.57;;;19.10;42.30;;;;;;5029804;28;20222;-56
2022/04/28 09:11:22;;;;;;;2.90;2.70;;;19.10;42.30;;;;;;5037580;28;20443;-57
2022/04/28 09:17:04;;;;;;;2.37;2.27;;;19.10;42.30;;;;;;4969207;28;20524;-56
2022/04/28 09:19:34;;;;;;;2.80;2.60;;;19.10;42.30;;;;;;5026805;28;20440;-56
2022/04/28 09:22:13;;;;;;;2.10;2.00;;;19.10;42.30;;;;;;5041631;28;20452;-58
2022/04/28 09:24:42;;;;;;;2.20;2.10;;;19.10;42.30;;;;;;5037954;28;20525;-56
2022/04/28 09:27:08;;;;;;;2.50;2.30;;;19.10;42.30;;;;;;5034597;28;20831;-58
2022/04/28 09:29:36;;;;;;;2.67;2.47;;;19.10;42.40;;;;;;5035148;28;20451;-56
2022/04/28 09:32:06;;;;;;;2.50;2.30;;;19.10;42.40;;;;;;5037906;28;20459;-57
2022/04/28 09:34:32;;;;;;;2.70;2.50;;;19.10;42.40;;;;;;5035884;28;20454;-57
2022/04/28 09:36:58;;;;;;;2.30;2.20;;;19.10;42.40;;;;;;5041197;28;20452;-58
2022/04/28 09:42:31;;;;;;;2.90;2.70;;;19.10;42.40;;;;;;5037102;28;20463;-56
2022/04/28 09:45:00;;;;;;;2.50;2.40;;;19.10;42.40;;;;;;5034905;28;20928;-56
2022/04/28 09:47:27;;;;;;;2.80;2.60;;;19.10;42.50;;;;;;5037520;28;20776;-57
2022/04/28 09:49:53;;;;;;;2.40;2.30;;;19.10;42.50;;;;;;5042411;28;20430;-56
2022/04/28 09:52:20;;;;;;;2.90;2.70;;;19.10;42.40;;;;;;5035709;28;20476;-57
2022/04/28 09:54:47;;;;;;;2.50;2.40;;;19.10;42.40;;;;;;5038204;28;20445;-58
2022/04/28 09:57:13;;;;;;;2.50;2.30;;;19.10;42.50;;;;;;5038732;28;20430;-58
2022/04/28 09:59:39;;;;;;;3.17;2.97;;;19.10;42.40;;;;;;5040993;28;20459;-58
2022/04/28 10:02:13;;;;;;;3.13;2.90;;;19.10;43.30;;;;;;5040848;28;20931;-57
2022/04/28 10:04:41;;;;;;;3.07;2.77;;;19.10;42.40;;;;;;5020177;28;21864;-58
2022/04/28 10:07:07;;;;;;;2.97;2.77;;;19.10;42.40;;;;;;5035967;28;20438;-57
2022/04/28 10:09:34;;;;;;;2.70;2.50;;;19.10;42.50;;;;;;5035778;28;20574;-58
2022/04/28 10:12:00;;;;;;;3.70;3.50;;;19.10;42.50;;;;;;5041669;28;20463;-58
2022/04/28 10:14:27;;;;;;;3.47;3.27;;;19.10;42.50;;;;;;5036544;28;20903;-57
2022/04/28 10:16:54;;;;;;;3.60;3.40;;;19.10;42.50;;;;;;5033430;28;20249;-58
2022/04/28 10:19:24;;;;;;;3.30;3.10;;;19.10;42.50;;;;;;5039705;28;20432;-57
2022/04/28 10:22:01;;;;;;;3.10;2.90;;;19.10;42.50;;;;;;5040008;28;20431;-57
2022/04/28 10:32:54;;;;;;;3.23;3.03;;;19.10;42.60;;;;;;5039669;28;20503;-57
2022/04/28 10:35:36;;;;;;;3.20;3.00;;;19.00;42.50;;;;;;5042150;28;20492;-59
2022/04/28 10:38:20;;;;;;;3.00;2.80;;;19.00;42.50;;;;;;5037279;28;20441;-58
2022/04/28 10:41:10;;;;;;;3.33;3.13;;;19.10;42.60;;;;;;5039094;28;20455;-57
2022/04/28 10:43:40;;;;;;;3.57;3.27;;;19.10;42.60;;;;;;5040148;28;21068;-58
2022/04/28 10:46:09;;;;;;;3.80;3.60;;;19.00;42.50;;;;;;5042744;28;20430;-59
2022/04/28 10:48:42;;;;;;;3.93;3.73;;;19.00;42.50;;;;;;5045077;28;20434;-57
2022/04/28 10:51:22;;;;;;;3.53;3.33;;;19.00;42.50;;;;;;5037362;28;20447;-58
2022/04/28 10:54:10;;;;;;;4.10;3.80;;;19.00;42.60;;;;;;5033743;28;20450;-57
2022/04/28 10:56:42;;;;;;;4.13;3.83;;;19.00;42.50;;;;;;5041927;28;20448;-57
2022/04/28 10:59:46;;;;;;;3.90;3.40;;;19.00;43.30;;;;;;5040022;28;20428;-57
2022/04/28 11:02:11;;;;;;;3.33;3.13;;;19.00;42.60;;;;;;5037981;28;20442;-58
2022/04/28 11:04:39;;;;;;;3.87;3.63;;;19.00;42.60;;;;;;5044351;28;20423;-57
2022/04/28 11:07:24;;;;;;;3.60;3.30;;;19.00;42.70;;;;;;5043470;28;20651;-57
2022/04/28 11:10:13;;;;;;;4.03;3.83;;;19.00;42.60;;;;;;5037035;28;20432;-57
2022/04/28 11:12:43;;;;;;;4.10;3.87;;;19.00;42.60;;;;;;5041360;28;20452;-58
2022/04/28 11:15:14;;;;;;;4.30;4.00;;;19.00;43.40;;;;;;5037241;28;20541;-57
2022/04/28 11:17:43;;;;;;;3.40;3.20;;;19.00;42.70;;;;;;5040893;28;20940;-57
2022/04/28 11:20:21;;;;;;;4.53;4.23;;;19.00;42.70;;;;;;5040538;28;20917;-57
2022/04/28 11:22:49;;;;;;;4.70;4.40;;;19.00;42.70;;;;;;5037432;28;20426;-58
2022/04/28 11:25:17;;;;;;;4.60;4.30;;;19.00;42.70;;;;;;5038050;28;20415;-58
2022/04/28 11:27:44;;;;;;;4.03;3.80;;;19.00;42.70;;;;;;5038588;28;20431;-59
2022/04/28 11:30:13;;;;;;;4.50;4.20;;;19.00;42.70;;;;;;5038262;28;20494;-57
2022/04/28 11:32:45;;;;;;;3.87;3.67;;;19.00;42.70;;;;;;5040494;28;20930;-58
2022/04/28 11:35:11;;;;;;;4.40;4.10;;;19.00;42.70;;;;;;5038154;28;20441;-57
2022/04/28 11:37:38;;;;;;;5.67;4.57;;;19.00;42.70;;;;;;5044824;28;20510;-57
2022/04/28 11:40:06;;;;;;;4.27;4.07;;;19.00;42.70;;;;;;5038923;28;20255;-58
2022/04/28 11:42:33;;;;;;;5.13;4.77;;;19.00;42.70;;;;;;5037341;28;20475;-57
2022/04/28 11:45:00;;;;;;;4.20;3.77;;;19.00;42.80;;;;;;5042138;28;20438;-57
2022/04/28 11:47:27;;;;;;;4.37;4.00;;;19.00;42.70;;;;;;5043312;28;20415;-58
2022/04/28 11:50:02;;;;;;;4.57;4.27;;;19.00;42.70;;;;;;5039476;28;20934;-57
2022/04/28 11:52:32;;;;;;;4.50;4.20;;;19.00;42.70;;;;;;5039092;28;20458;-58
2022/04/28 11:54:59;;;;;;;4.43;4.10;;;19.00;42.70;;;;;;5041894;28;20423;-58
2022/04/28 11:57:24;;;;;;;5.33;5.03;;;19.00;42.80;;;;;;5043417;28;20457;-58
2022/04/28 11:59:51;;;;;;;5.27;4.87;;;19.00;42.80;;;;;;5040083;28;20517;-57
2022/04/28 12:02:34;;;;;;;5.00;4.60;;;19.00;42.80;;;;;;5043078;28;20218;-57
2022/04/28 12:05:25;;;;;;;5.07;4.77;;;19.00;42.70;;;;;;5040246;28;20832;-57
2022/04/28 12:07:52;;;;;;;5.10;4.60;;;19.00;42.80;;;;;;5033723;28;20443;-57
2022/04/28 12:16:17;;;;;;;5.30;4.90;;;19.00;42.80;;;;;;5040150;28;20453;-57
2022/04/28 12:21:35;;;;;;;4.70;4.40;;;19.00;43.60;;;;;;5039537;28;20459;-56
2022/04/28 12:24:01;;;;;;;4.43;4.13;;;19.00;42.80;;;;;;5040264;28;20434;-58
2022/04/28 12:26:34;;;;;;;5.70;5.33;;;19.00;42.90;;;;;;5040032;28;20458;-57
2022/04/28 12:29:11;;;;;;;4.60;4.30;;;19.00;42.80;;;;;;5037080;28;20448;-58
2022/04/28 12:31:37;;;;;;;5.20;4.80;;;19.00;42.80;;;;;;5041206;28;20531;-58
2022/04/28 12:34:19;;;;;;;5.23;4.80;;;19.00;42.90;;;;;;5040131;28;20476;-58
2022/04/28 12:36:48;;;;;;;5.67;5.27;;;19.00;42.80;;;;;;5039781;28;20453;-57
2022/04/28 12:39:17;;;;;;;5.60;5.20;;;19.00;43.60;;;;;;5040967;28;20419;-57
2022/04/28 12:41:44;;;;;;;4.87;4.57;;;19.00;42.80;;;;;;5042777;28;20458;-57
2022/04/28 12:44:10;;;;;;;5.40;5.00;;;19.00;42.90;;;;;;5040433;28;20464;-58
2022/04/28 12:46:44;;;;;;;5.70;5.27;;;19.00;42.80;;;;;;5043363;28;20439;-58
2022/04/28 12:49:10;;;;;;;5.40;5.03;;;19.00;43.60;;;;;;5041015;28;20431;-58
2022/04/28 12:51:44;;;;;;;5.30;5.00;;;19.00;42.80;;;;;;5039280;28;20464;-57
2022/04/28 12:54:12;;;;;;;5.30;5.00;;;19.00;42.80;;;;;;5041181;28;20434;-57
2022/04/28 12:56:39;;;;;;;5.37;4.97;;;19.00;42.80;;;;;;5038282;28;20450;-59
2022/04/28 12:59:07;;;;;;;5.00;4.70;;;19.00;42.90;;;;;;5040585;28;20473;-57
2022/04/28 13:01:34;;;;;;;5.17;4.87;;;19.00;42.80;;;;;;5036265;28;20443;-58
2022/04/28 13:04:07;;;;;;;4.60;4.30;;;19.00;42.90;;;;;;5042956;28;20442;-57
2022/04/28 13:06:35;;;;;;;6.20;5.70;;;19.00;42.80;;;;;;5037587;28;20454;-58
2022/04/28 13:09:03;;;;;;;5.77;5.27;;;19.00;42.80;;;;;;5041785;28;20447;-58
2022/04/28 13:11:42;;;;;;;5.30;5.00;;;19.00;42.90;;;;;;5036352;28;20796;-58
2022/04/28 13:14:10;;;;;;;5.63;5.23;;;19.00;42.90;;;;;;5043188;28;20460;-59
2022/04/28 13:16:37;;;;;;;5.60;5.20;;;19.00;42.80;;;;;;5040180;28;20620;-57
2022/04/28 13:19:04;;;;;;;5.97;5.47;;;19.00;42.90;;;;;;5040671;28;20489;-58
2022/04/28 13:21:31;;;;;;;5.37;4.97;;;19.00;42.90;;;;;;5039013;28;20419;-58
2022/04/28 13:23:57;;;;;;;5.43;5.10;;;19.00;43.60;;;;;;5033242;28;20434;-60
2022/04/28 13:26:26;;;;;;;5.80;5.43;;;19.00;42.80;;;;;;5037283;28;20910;-60
2022/04/28 13:28:53;;;;;;;5.60;5.10;;;19.00;42.80;;;;;;5035418;28;20439;-57
2022/04/28 13:31:19;;;;;;;5.27;4.80;;;19.00;42.80;;;;;;5041016;28;20847;-57
2022/04/28 13:33:46;;;;;;;5.43;5.07;;;19.00;42.80;;;;;;5038320;28;20967;-59